createdAt,value
2023-01-28T02:02:45.335Z,16.75
2023-01-28T02:03:45.423Z,16.75
2023-01-28T02:04:45.382Z,16.74
2023-01-28T02:05:45.436Z,16.74
2023-01-28T02:06:45.451Z,16.76
2023-01-28T02:07:45.469Z,16.77
2023-01-28T02:08:45.476Z,16.76
2023-01-28T02:09:45.508Z,16.76
2023-01-28T02:10:45.517Z,16.74
2023-01-28T02:11:45.573Z,16.75
2023-01-28T02:12:45.580Z,16.76
2023-01-28T02:13:45.617Z,16.76
2023-01-28T02:14:45.667Z,16.77
2023-01-28T02:15:45.652Z,16.76
2023-01-28T02:16:45.716Z,16.75
2023-01-28T02:17:45.750Z,16.75
2023-01-28T02:18:45.799Z,16.75
2023-01-28T02:19:45.809Z,16.76
2023-01-28T02:20:45.874Z,16.77
2023-01-28T02:21:45.914Z,16.76
2023-01-28T02:22:45.979Z,16.76
2023-01-28T02:23:46.000Z,16.74
2023-01-28T02:24:46.073Z,16.76
2023-01-28T02:25:46.096Z,16.76
2023-01-28T02:26:46.145Z,16.77
2023-01-28T02:27:46.202Z,16.77
2023-01-28T02:28:46.261Z,16.77
2023-01-28T02:29:46.275Z,16.76
2023-01-28T02:30:46.347Z,16.77
2023-01-28T02:31:46.489Z,16.76
2023-01-28T02:32:46.388Z,16.77
2023-01-28T02:33:46.409Z,16.76
2023-01-28T02:34:46.456Z,16.76
2023-01-28T02:35:46.490Z,16.77
2023-01-28T02:36:46.529Z,16.76
2023-01-28T02:37:46.588Z,16.77
2023-01-28T02:38:46.611Z,16.78
2023-01-28T02:39:46.661Z,16.78
2023-01-28T02:40:46.686Z,16.78
2023-01-28T02:41:46.714Z,16.78
2023-01-28T02:42:46.751Z,16.78
2023-01-28T02:43:46.796Z,16.78
2023-01-28T02:44:46.824Z,16.78
2023-01-28T02:45:46.880Z,16.77
2023-01-28T02:46:46.913Z,16.77
2023-01-28T02:47:46.990Z,16.77
2023-01-28T02:48:47.034Z,16.77
2023-01-28T02:49:47.012Z,16.79
2023-01-28T02:50:47.043Z,16.78
2023-01-28T02:51:47.082Z,16.78
2023-01-28T02:52:47.098Z,16.78
2023-01-28T02:53:47.086Z,16.79
2023-01-28T02:54:47.143Z,16.78
2023-01-28T02:55:47.167Z,16.79
2023-01-28T02:56:47.195Z,16.79
2023-01-28T02:57:47.271Z,16.78
2023-01-28T02:58:47.323Z,16.78
2023-01-28T02:59:47.415Z,16.77
2023-01-28T03:00:47.448Z,16.78
2023-01-28T03:01:47.537Z,16.77
2023-01-28T03:02:47.581Z,16.79
2023-01-28T03:03:47.573Z,16.78
2023-01-28T03:04:47.615Z,16.78
2023-01-28T03:05:47.655Z,16.78
2023-01-28T03:06:47.691Z,16.79
2023-01-28T03:07:47.726Z,16.79
2023-01-28T06:18:53.848Z,16.88
2023-01-28T06:20:53.862Z,16.88
2023-01-28T06:21:53.875Z,16.86
2023-01-28T06:22:53.899Z,16.86
2023-01-28T06:23:53.972Z,16.88
2023-01-28T06:24:53.941Z,16.88
2023-01-28T06:25:53.976Z,16.89
2023-01-28T06:26:54.018Z,16.89
2023-01-28T06:27:54.079Z,16.89
2023-01-28T06:28:54.148Z,16.90
2023-01-28T06:29:54.186Z,16.90
2023-01-28T06:30:54.303Z,16.89
2023-01-28T06:31:54.346Z,16.90
2023-01-28T06:32:54.345Z,16.88
2023-01-28T06:33:54.373Z,16.90
2023-01-28T06:34:54.412Z,16.89
2023-01-28T06:35:54.425Z,16.88
2023-01-28T06:36:54.460Z,16.89
2023-01-28T06:37:54.506Z,16.91
2023-01-28T06:38:54.529Z,16.90
2023-01-28T06:39:54.553Z,16.90
2023-01-28T06:40:54.616Z,16.90
2023-01-28T06:41:54.634Z,16.91
2023-01-28T06:42:54.637Z,16.90
2023-01-28T06:43:54.702Z,16.91
2023-01-28T06:44:54.649Z,16.92
2023-01-28T06:45:54.716Z,16.92
2023-01-28T06:46:54.756Z,16.91
2023-01-28T06:47:54.751Z,16.93
2023-01-28T06:48:54.780Z,16.94
2023-01-28T06:49:54.805Z,16.93
2023-01-28T06:50:54.838Z,16.92
2023-01-28T06:51:54.877Z,16.92
2023-01-28T06:52:54.883Z,16.92
2023-01-28T06:53:54.903Z,16.93
2023-01-28T06:54:54.893Z,16.93
2023-01-28T06:55:54.921Z,16.92
2023-01-28T06:56:54.919Z,16.92
2023-01-28T06:57:54.944Z,16.93
2023-01-28T06:58:54.991Z,16.92
2023-01-28T06:59:55.046Z,16.93
2023-01-28T07:00:55.063Z,16.93
2023-01-28T07:01:55.154Z,16.92
2023-01-28T07:02:55.084Z,16.92
2023-01-28T07:03:55.179Z,16.92
2023-01-28T07:05:55.190Z,16.91
2023-01-28T07:11:55.326Z,16.92
2023-01-28T07:12:55.373Z,16.92
2023-01-28T07:13:55.372Z,16.93
2023-01-28T07:14:55.426Z,16.90
2023-01-28T07:15:55.461Z,16.91
2023-01-28T07:16:55.482Z,16.92
2023-01-28T07:17:55.481Z,16.92
2023-01-28T07:18:55.505Z,16.90
2023-01-28T07:19:55.550Z,16.90
2023-01-28T07:20:55.608Z,16.90
2023-01-28T07:21:55.591Z,16.90
2023-01-28T07:22:55.615Z,16.90
2023-01-28T07:23:55.686Z,16.90
2023-01-28T07:24:55.683Z,16.90
2023-01-28T07:25:55.707Z,16.91
2023-01-28T07:26:55.779Z,16.91
2023-01-28T07:27:55.746Z,16.91
2023-01-28T07:28:55.766Z,16.91
2023-01-28T07:29:55.809Z,16.90
2023-01-28T07:30:55.914Z,16.90
2023-01-28T07:31:55.931Z,16.90
2023-01-28T07:32:55.883Z,16.92
2023-01-28T07:33:55.904Z,16.91
2023-01-28T07:34:55.950Z,16.91
2023-01-28T07:35:55.959Z,16.91
2023-01-28T07:36:57.487Z,16.90
2023-01-28T07:37:55.996Z,16.90
2023-01-28T07:38:56.028Z,16.90
2023-01-28T07:39:56.049Z,16.88
2023-01-28T07:40:56.098Z,16.90
2023-01-28T07:41:56.116Z,16.89
2023-01-28T07:42:56.129Z,16.90
2023-01-28T07:43:56.168Z,16.90
2023-01-28T07:44:56.150Z,16.90
2023-01-28T07:45:56.231Z,16.90
2023-01-28T07:46:56.203Z,16.88
2023-01-28T07:47:56.202Z,16.89
2023-01-28T07:48:56.219Z,16.90
2023-01-28T07:49:56.221Z,16.91
2023-01-28T07:50:56.284Z,16.90
2023-01-28T07:51:56.335Z,16.90
2023-01-28T07:52:56.312Z,16.91
2023-01-28T07:53:56.348Z,16.90
2023-01-28T07:54:56.338Z,16.93
2023-01-28T07:55:56.384Z,16.90
2023-01-28T07:56:56.408Z,16.92
2023-01-28T07:57:56.405Z,16.91
2023-01-28T07:58:56.392Z,16.91
2023-01-28T07:59:56.371Z,16.91
2023-01-28T08:00:56.395Z,16.92
2023-01-28T08:01:56.437Z,16.92
2023-01-28T08:02:56.461Z,16.92
2023-01-28T08:03:56.433Z,16.93
2023-01-28T08:04:56.553Z,16.92
2023-01-28T08:05:56.486Z,16.93
2023-01-28T08:06:56.517Z,16.92
2023-01-28T08:07:56.507Z,16.95
2023-01-28T08:08:56.499Z,16.96
2023-01-28T08:09:56.533Z,16.94
2023-01-28T08:10:56.536Z,16.96
2023-01-28T08:11:56.542Z,16.96
2023-01-28T08:12:56.569Z,16.96
2023-01-28T08:13:56.595Z,16.96
2023-01-28T08:14:56.642Z,16.96
2023-01-28T08:15:56.764Z,16.97
2023-01-28T08:16:56.706Z,16.98
2023-01-28T08:17:56.729Z,17.01
2023-01-28T08:18:56.758Z,16.99
2023-01-28T08:19:56.809Z,16.99
2023-01-28T08:20:56.860Z,17.00
2023-01-28T08:21:56.857Z,17.00
2023-01-28T08:22:56.893Z,17.01
2023-01-28T08:23:57.191Z,17.00
2023-01-28T08:24:56.938Z,17.01
2023-01-28T08:25:56.999Z,17.02
2023-01-28T08:26:57.062Z,17.00
2023-01-28T08:27:57.027Z,17.01
2023-01-28T08:28:57.069Z,17.01
2023-01-28T08:29:57.068Z,17.02
2023-01-28T08:30:57.205Z,17.01
2023-01-28T08:31:57.103Z,17.03
2023-01-28T08:32:57.164Z,17.04
2023-01-28T08:33:57.191Z,17.03
2023-01-28T08:34:57.208Z,17.03
2023-01-28T08:35:57.251Z,17.03
2023-01-28T08:36:57.452Z,17.04
2023-01-28T08:37:57.264Z,17.06
2023-01-28T08:38:57.289Z,17.06
2023-01-28T08:39:57.314Z,17.06
2023-01-28T08:40:57.372Z,17.08
2023-01-28T08:41:57.383Z,17.08
2023-01-28T08:42:57.437Z,17.08
2023-01-28T08:43:57.452Z,17.07
2023-01-28T08:44:57.474Z,17.07
2023-01-28T08:45:57.487Z,17.10
2023-01-28T08:46:57.503Z,17.10
2023-01-28T08:47:57.501Z,17.11
2023-01-28T08:48:57.512Z,17.10
2023-01-28T08:49:57.551Z,17.12
2023-01-28T08:50:57.533Z,17.12
2023-01-28T08:51:57.582Z,17.13
2023-01-28T08:52:57.556Z,17.13
2023-01-28T08:53:57.556Z,17.13
2023-01-28T08:54:57.557Z,17.14
2023-01-28T08:55:57.593Z,17.14
2023-01-28T08:56:57.646Z,17.14
2023-01-28T08:57:58.698Z,17.14
2023-01-28T08:58:57.666Z,17.15
2023-01-28T08:59:57.683Z,17.15
2023-01-28T09:00:57.769Z,17.14
2023-01-28T09:01:57.796Z,17.15
2023-01-28T09:02:57.773Z,17.17
2023-01-28T09:03:57.842Z,17.19
2023-01-28T09:04:57.794Z,17.18
2023-01-28T09:05:57.832Z,17.18
2023-01-28T09:06:57.856Z,17.18
2023-01-28T09:07:57.862Z,17.20
2023-01-28T09:08:57.926Z,17.19
2023-01-28T09:09:57.929Z,17.19
2023-01-28T09:10:57.965Z,17.21
2023-01-28T09:11:58.028Z,17.21
2023-01-28T09:12:58.020Z,17.19
2023-01-28T09:13:58.059Z,17.22
2023-01-28T09:14:58.121Z,17.21
2023-01-28T09:15:58.161Z,17.21
2023-01-28T09:16:58.147Z,17.20
2023-01-28T09:17:58.197Z,17.20
2023-01-28T09:18:58.233Z,17.21
2023-01-28T09:19:58.233Z,17.21
2023-01-28T09:20:58.273Z,17.22
2023-01-28T09:21:58.254Z,17.20
2023-01-28T09:22:58.269Z,17.21
2023-01-28T09:23:58.407Z,17.22
2023-01-28T09:24:58.301Z,17.23
2023-01-28T09:25:58.330Z,17.21
2023-01-28T09:26:58.320Z,17.21
2023-01-28T09:27:58.377Z,17.22
2023-01-28T09:28:58.413Z,17.22
2023-01-28T09:29:58.419Z,17.23
2023-01-28T09:30:58.683Z,17.23
2023-01-28T09:31:58.567Z,17.24
2023-01-28T09:32:58.461Z,17.26
2023-01-28T09:33:58.446Z,17.24
2023-01-28T09:34:58.481Z,17.23
2023-01-28T09:35:58.484Z,17.23
2023-01-28T09:36:58.515Z,17.24
2023-01-28T09:37:58.575Z,17.22
2023-01-28T09:38:58.568Z,17.22
2023-01-28T09:39:58.640Z,17.22
2023-01-28T09:40:58.650Z,17.23
2023-01-28T09:41:58.673Z,17.22
2023-01-28T09:42:58.740Z,17.23
2023-01-28T09:43:58.698Z,17.24
2023-01-28T09:44:58.732Z,17.21
2023-01-28T09:45:58.758Z,17.22
2023-01-28T09:46:58.800Z,17.22
2023-01-28T09:47:58.805Z,17.22
2023-01-28T09:48:58.849Z,17.23
2023-01-28T09:49:58.845Z,17.24
2023-01-28T09:50:58.847Z,17.24
2023-01-28T09:51:58.875Z,17.23
2023-01-28T09:52:58.881Z,17.22
2023-01-28T09:53:58.925Z,17.23
2023-01-28T09:54:58.907Z,17.24
2023-01-28T09:55:58.929Z,17.22
2023-01-28T09:56:58.973Z,17.23
2023-01-28T09:57:58.994Z,17.21
2023-01-28T09:58:59.009Z,17.24
2023-01-28T09:59:59.020Z,17.21
2023-01-28T10:00:59.184Z,17.21
2023-01-28T10:01:59.065Z,17.22
2023-01-28T10:02:59.108Z,17.23
2023-01-28T10:03:59.164Z,17.22
2023-01-28T10:04:59.138Z,17.22
2023-01-28T10:05:59.156Z,17.25
2023-01-28T10:06:59.164Z,17.24
2023-01-28T10:07:59.203Z,17.24
2023-01-28T10:08:59.224Z,17.26
2023-01-28T10:09:59.204Z,17.27
2023-01-28T10:10:59.265Z,17.27
2023-01-28T10:11:59.288Z,17.26
2023-01-28T10:12:59.292Z,17.26
2023-01-28T10:13:59.274Z,17.26
2023-01-28T10:14:59.320Z,17.26
2023-01-28T10:15:59.332Z,17.27
2023-01-28T10:16:59.347Z,17.26
2023-01-28T10:18:15.675Z,17.25
2023-01-28T10:19:00.332Z,17.27
2023-01-28T10:19:59.369Z,17.25
2023-01-28T10:20:59.402Z,17.28
2023-01-28T10:21:59.378Z,17.27
2023-01-28T10:22:59.335Z,17.26
2023-01-28T10:23:59.396Z,17.26
2023-01-28T10:24:59.355Z,17.25
2023-01-28T10:25:59.350Z,17.27
2023-01-28T10:26:59.311Z,17.25
2023-01-28T10:27:59.318Z,17.26
2023-01-28T10:28:59.315Z,17.28
2023-01-28T10:29:59.331Z,17.26
2023-01-28T10:30:59.371Z,17.26
2023-01-28T10:31:59.381Z,17.26
2023-01-28T10:32:59.325Z,17.23
2023-01-28T10:33:59.314Z,17.25
2023-01-28T10:34:59.320Z,17.23
2023-01-28T10:35:59.352Z,17.25
2023-01-28T10:36:59.368Z,17.25
2023-01-28T10:37:59.430Z,17.22
2023-01-28T10:38:59.449Z,17.25
2023-01-28T10:39:59.501Z,17.24
2023-01-28T10:40:59.524Z,17.24
2023-01-28T10:41:59.523Z,17.23
2023-01-28T10:42:59.521Z,17.24
2023-01-28T10:43:59.516Z,17.24
2023-01-28T10:44:59.527Z,17.25
2023-01-28T10:45:59.799Z,17.24
2023-01-28T10:46:59.537Z,17.24
2023-01-28T10:47:59.619Z,17.22
2023-01-28T10:48:59.590Z,17.20
2023-01-28T10:49:59.655Z,17.20
2023-01-28T10:50:59.700Z,17.19
2023-01-28T10:51:59.715Z,17.19
2023-01-28T10:52:59.749Z,17.21
2023-01-28T10:53:59.792Z,17.21
2023-01-28T10:54:59.868Z,17.22
2023-01-28T10:55:59.903Z,17.21
2023-01-28T10:57:00.114Z,17.23
2023-01-28T10:57:59.958Z,17.23
2023-01-28T10:58:59.999Z,17.23
2023-01-28T11:00:00.036Z,17.22
2023-01-28T11:01:00.143Z,17.22
2023-01-28T11:02:00.152Z,17.20
2023-01-28T11:03:00.114Z,17.22
2023-01-28T11:04:00.149Z,17.24
2023-01-28T11:05:00.159Z,17.22
2023-01-28T11:06:00.236Z,17.21
2023-01-28T11:07:00.256Z,17.24
2023-01-28T11:08:00.287Z,17.23
2023-01-28T11:09:01.497Z,17.20
2023-01-28T11:10:00.377Z,17.21
2023-01-28T11:11:00.388Z,17.21
2023-01-28T11:12:00.390Z,17.20
2023-01-28T11:13:00.406Z,17.20
2023-01-28T11:14:00.460Z,17.20
2023-01-28T11:15:00.476Z,17.21
2023-01-28T11:16:00.532Z,17.21
2023-01-28T11:17:00.541Z,17.20
2023-01-28T11:18:00.606Z,17.20
2023-01-28T11:19:00.583Z,17.21
2023-01-28T11:20:00.773Z,17.20
2023-01-28T11:21:00.674Z,17.21
2023-01-28T11:22:00.703Z,17.20
2023-01-28T11:23:00.713Z,17.19
2023-01-28T11:24:00.745Z,17.20
2023-01-28T11:25:00.716Z,17.20
2023-01-28T11:26:00.793Z,17.22
2023-01-28T11:27:01.786Z,17.21
2023-01-28T11:28:00.837Z,17.21
2023-01-28T11:29:00.845Z,17.21
2023-01-28T11:30:00.879Z,17.22
2023-01-28T11:31:00.899Z,17.21
2023-01-28T11:32:00.910Z,17.21
2023-01-28T11:33:00.943Z,17.21
2023-01-28T11:34:00.980Z,17.19
2023-01-28T11:35:01.003Z,17.20
2023-01-28T11:36:01.066Z,17.20
2023-01-28T11:37:01.116Z,17.21
2023-01-28T11:38:01.201Z,17.22
2023-01-28T11:39:01.233Z,17.20
2023-01-28T11:40:01.266Z,17.21
2023-01-28T11:41:01.371Z,17.20
2023-01-28T11:42:01.309Z,17.21
2023-01-28T11:43:01.431Z,17.22
2023-01-28T11:44:01.401Z,17.22
2023-01-28T11:45:01.383Z,17.21
2023-01-28T11:46:04.778Z,17.20
2023-01-28T11:47:01.430Z,17.21
2023-01-28T11:48:01.396Z,17.19
2023-01-28T11:50:01.415Z,17.19
2023-01-28T11:51:01.405Z,17.21
2023-01-28T11:52:01.388Z,17.21
2023-01-28T11:53:07.833Z,17.19
2023-01-28T11:54:02.387Z,17.22
2023-01-28T11:55:01.408Z,17.21
2023-01-28T11:56:01.359Z,17.20
2023-01-28T11:57:01.364Z,17.21
2023-01-28T11:58:01.350Z,17.21
2023-01-28T11:59:01.331Z,17.21
2023-01-28T12:00:01.338Z,17.21
2023-01-28T12:01:01.338Z,17.20
2023-01-28T12:02:01.338Z,17.19
2023-01-28T12:03:01.278Z,17.18
2023-01-28T12:04:01.300Z,17.17
2023-01-28T12:05:01.378Z,17.17
2023-01-28T12:06:01.277Z,17.19
2023-01-28T12:07:01.276Z,17.17
2023-01-28T12:08:01.295Z,17.17
2023-01-28T12:09:01.331Z,17.17
2023-01-28T12:10:01.321Z,17.17
2023-01-28T12:11:01.364Z,17.15
2023-01-28T12:12:02.622Z,17.17
2023-01-28T12:13:01.390Z,17.16
2023-01-28T12:14:01.392Z,17.16
2023-01-28T12:15:01.605Z,17.16
2023-01-28T12:16:01.854Z,17.16
2023-01-28T12:17:01.675Z,17.14
2023-01-28T12:18:01.562Z,17.14
2023-01-28T12:19:01.592Z,17.14
2023-01-28T12:20:01.608Z,17.16
2023-01-28T12:21:01.636Z,17.15
2023-01-28T12:22:01.678Z,17.12
2023-01-28T12:23:01.684Z,17.15
2023-01-28T12:24:01.776Z,17.16
2023-01-28T12:25:01.762Z,17.15
2023-01-28T12:26:01.771Z,17.14
2023-01-28T12:27:01.782Z,17.14
2023-01-28T12:28:01.876Z,17.14
2023-01-28T12:29:01.863Z,17.16
2023-01-28T12:30:01.904Z,17.15
2023-01-28T12:31:01.990Z,17.16
2023-01-28T12:32:02.122Z,17.16
2023-01-28T12:33:02.024Z,17.16
2023-01-28T12:34:02.067Z,17.15
2023-01-28T12:35:02.137Z,17.16
2023-01-28T12:36:02.192Z,17.20
2023-01-28T12:37:02.245Z,17.17
2023-01-28T12:38:02.256Z,17.16
2023-01-28T12:39:02.274Z,17.17
2023-01-28T12:40:02.283Z,17.17
2023-01-28T12:41:02.345Z,17.17
2023-01-28T12:42:02.321Z,17.16
2023-01-28T12:43:02.374Z,17.17
2023-01-28T12:44:02.395Z,17.17
2023-01-28T12:45:02.423Z,17.16
2023-01-28T12:46:02.487Z,17.17
2023-01-28T12:47:04.293Z,17.16
2023-01-28T12:48:02.479Z,17.17
2023-01-28T12:49:02.456Z,17.16
2023-01-28T12:50:02.481Z,17.14
2023-01-28T12:51:02.493Z,17.14
2023-01-28T12:52:02.502Z,17.14
2023-01-28T12:53:02.517Z,17.14
2023-01-28T12:54:02.553Z,17.13
2023-01-28T12:55:02.596Z,17.13
2023-01-28T12:56:02.624Z,17.14
2023-01-28T12:57:02.634Z,17.13
2023-01-28T12:58:02.651Z,17.13
2023-01-28T12:59:02.703Z,17.14
2023-01-28T13:00:02.725Z,17.13
2023-01-28T13:01:02.770Z,17.13
2023-01-28T13:02:02.855Z,17.12
2023-01-28T13:03:02.884Z,17.11
2023-01-28T13:04:02.896Z,17.10
2023-01-28T13:05:02.933Z,17.10
2023-01-28T13:06:02.964Z,17.10
2023-01-28T13:07:03.006Z,17.12
2023-01-28T13:08:03.051Z,17.12
2023-01-28T13:09:03.089Z,17.13
2023-01-28T13:10:03.140Z,17.12
2023-01-28T13:11:03.165Z,17.13
2023-01-28T13:12:03.218Z,17.14
2023-01-28T13:13:03.254Z,17.13
2023-01-28T13:14:03.296Z,17.12
2023-01-28T13:15:03.355Z,17.11
2023-01-28T13:16:03.463Z,17.11
2023-01-28T13:17:03.560Z,17.11
2023-01-28T13:18:03.535Z,17.10
2023-01-28T13:19:03.602Z,17.10
2023-01-28T13:20:03.655Z,17.07
2023-01-28T13:21:03.659Z,17.09
2023-01-28T13:22:03.726Z,17.10
2023-01-28T13:23:03.787Z,17.10
2023-01-28T13:24:03.837Z,17.08
2023-01-28T13:25:03.889Z,17.09
2023-01-28T13:26:03.906Z,17.05
2023-01-28T13:27:03.969Z,17.06
2023-01-28T13:28:04.047Z,17.04
2023-01-28T13:29:04.102Z,17.07
2023-01-28T13:30:04.090Z,17.05
2023-01-28T13:31:04.204Z,17.05
2023-01-28T13:32:04.259Z,17.06
2023-01-28T13:33:04.231Z,17.07
2023-01-28T13:34:04.336Z,17.05
2023-01-28T13:37:05.879Z,17.06
2023-01-28T13:39:04.497Z,17.03
2023-01-28T13:40:04.548Z,17.03
2023-01-28T13:41:04.568Z,17.03
2023-01-28T13:42:04.619Z,17.03
2023-01-28T13:43:04.685Z,17.04
2023-01-28T13:44:04.689Z,17.03
2023-01-28T13:45:04.756Z,17.03
2023-01-28T13:46:04.866Z,17.04
2023-01-28T13:47:04.848Z,17.03
2023-01-28T13:49:04.944Z,17.01
2023-01-28T13:50:05.044Z,17.02
2023-01-28T13:51:05.045Z,17.01
2023-01-28T13:52:05.092Z,17.02
2023-01-28T13:53:05.121Z,17.02
2023-01-28T13:54:05.167Z,17.02
2023-01-28T13:55:05.264Z,17.01
2023-01-28T13:56:05.285Z,16.99
2023-01-28T13:57:05.333Z,17.00
2023-01-28T13:58:05.418Z,16.98
2023-01-28T13:59:05.443Z,16.98
2023-01-28T14:00:05.483Z,16.97
2023-01-28T14:01:05.617Z,16.96
2023-01-28T14:02:05.605Z,16.97
2023-01-28T14:03:05.640Z,16.95
2023-01-28T14:04:05.705Z,16.95
2023-01-28T14:05:05.758Z,16.93
2023-01-28T14:06:05.850Z,16.94
2023-01-28T14:07:05.919Z,16.94
2023-01-28T14:08:05.890Z,16.92
2023-01-28T14:09:05.937Z,16.91
2023-01-28T14:10:05.990Z,16.91
2023-01-28T14:11:06.047Z,16.91
2023-01-28T14:12:06.058Z,16.89
2023-01-28T14:13:06.095Z,16.90
2023-01-28T14:14:06.173Z,16.89
2023-01-28T14:15:06.239Z,16.89
2023-01-28T14:16:06.311Z,16.87
2023-01-28T14:17:06.351Z,16.89
2023-01-28T14:18:06.390Z,16.90
2023-01-28T14:19:06.434Z,16.88
2023-01-28T14:20:06.465Z,16.88
2023-01-28T14:21:06.499Z,16.87
2023-01-28T14:22:06.597Z,16.86
2023-01-28T14:23:06.638Z,16.86
2023-01-28T14:24:06.748Z,16.87
2023-01-28T14:25:06.710Z,16.84
2023-01-28T14:26:06.761Z,16.83
2023-01-28T14:27:06.798Z,16.82
2023-01-28T14:28:06.879Z,16.84
2023-01-28T14:29:06.900Z,16.84
2023-01-28T14:30:07.097Z,16.81
2023-01-28T14:31:07.150Z,16.80
2023-01-28T14:32:07.144Z,16.80
2023-01-28T14:33:07.133Z,16.79
2023-01-28T14:34:07.200Z,16.78
2023-01-28T14:35:07.191Z,16.82
2023-01-28T14:36:07.252Z,16.83
2023-01-28T14:37:07.310Z,16.80
2023-01-28T14:38:07.331Z,16.81
2023-01-28T14:39:07.397Z,16.80
2023-01-28T14:40:07.405Z,16.78
2023-01-28T14:41:07.434Z,16.80
2023-01-28T14:42:07.458Z,16.79
2023-01-28T14:43:07.507Z,16.80
2023-01-28T14:44:07.512Z,16.80
2023-01-28T14:45:07.518Z,16.81
2023-01-28T14:46:07.618Z,16.78
2023-01-28T14:47:07.634Z,16.78
2023-01-28T14:48:07.643Z,16.80
2023-01-28T14:49:07.710Z,16.82
2023-01-28T14:50:07.708Z,16.80
2023-01-28T14:51:07.800Z,16.84
2023-01-28T14:52:07.827Z,16.83
2023-01-28T14:53:07.909Z,16.81
2023-01-28T14:54:07.916Z,16.81
2023-01-28T14:55:07.948Z,16.80
2023-01-28T14:56:08.016Z,16.78
2023-01-28T14:57:08.013Z,16.78
2023-01-28T14:58:08.051Z,16.76
2023-01-28T14:59:08.122Z,16.77
2023-01-28T15:00:08.162Z,16.74
2023-01-28T15:01:08.216Z,16.78
2023-01-28T15:02:08.234Z,16.80
2023-01-28T15:03:23.135Z,16.77
2023-01-28T15:04:09.271Z,16.78
2023-01-28T15:05:08.326Z,16.81
2023-01-28T15:06:08.294Z,16.78
2023-01-28T15:07:08.277Z,16.80
2023-01-28T15:08:08.299Z,16.79
2023-01-28T15:09:08.307Z,16.81
2023-01-28T15:10:08.295Z,16.80
2023-01-28T15:11:08.286Z,16.81
2023-01-28T15:12:08.276Z,16.77
2023-01-28T15:13:08.323Z,16.80
2023-01-28T15:14:08.309Z,16.80
2023-01-28T15:15:08.281Z,16.82
2023-01-28T15:16:08.327Z,16.81
2023-01-28T15:17:08.415Z,16.80
2023-01-28T15:18:08.351Z,16.81
2023-01-28T15:19:08.397Z,16.80
2023-01-28T15:20:08.454Z,16.80
2023-01-28T15:21:08.473Z,16.77
2023-01-28T15:22:08.594Z,16.79
2023-01-28T15:23:08.593Z,16.80
2023-01-28T15:24:08.673Z,16.83
2023-01-28T15:25:08.705Z,16.82
2023-01-28T15:26:08.785Z,16.82
2023-01-28T15:27:08.807Z,16.80
2023-01-28T15:28:08.836Z,16.80
2023-01-28T15:29:08.908Z,16.81
2023-01-28T15:30:08.946Z,16.80
2023-01-28T15:31:09.034Z,16.84
2023-01-28T15:32:09.026Z,16.85
2023-01-28T15:33:09.066Z,16.85
2023-01-28T15:34:09.102Z,16.84
2023-01-28T15:35:09.185Z,16.86
2023-01-28T15:36:09.182Z,16.83
2023-01-28T15:37:09.208Z,16.84
2023-01-28T15:38:10.064Z,16.85
2023-01-28T15:39:09.288Z,16.83
2023-01-28T15:40:09.368Z,16.82
2023-01-28T15:41:09.401Z,16.82
2023-01-28T15:42:09.414Z,16.82
2023-01-28T15:43:09.490Z,16.81
2023-01-28T15:44:09.548Z,16.82
2023-01-28T15:45:09.567Z,16.85
2023-01-28T15:46:09.574Z,16.84
2023-01-28T15:47:09.673Z,16.85
2023-01-28T15:48:09.687Z,16.84
2023-01-28T15:49:09.744Z,16.82
2023-01-28T15:50:09.798Z,16.82
2023-01-28T15:51:09.850Z,16.80
2023-01-28T15:52:09.905Z,16.80
2023-01-28T15:53:09.943Z,16.79
2023-01-28T15:54:09.979Z,16.83
2023-01-28T15:55:10.026Z,16.82
2023-01-28T15:56:10.030Z,16.82
2023-01-28T15:57:10.078Z,16.82
2023-01-28T15:58:10.126Z,16.83
2023-01-28T15:59:10.133Z,16.82
2023-01-28T16:00:10.170Z,16.82
2023-01-28T16:01:10.255Z,16.81
2023-01-28T16:02:10.242Z,16.82
2023-01-28T16:03:10.305Z,16.81
2023-01-28T16:04:10.260Z,16.79
2023-01-28T16:05:10.291Z,16.77
2023-01-28T16:06:10.372Z,16.74
2023-01-28T16:07:10.372Z,16.76
2023-01-28T16:08:10.429Z,16.80
2023-01-28T16:09:10.436Z,16.78
2023-01-28T16:10:10.446Z,16.78
2023-01-28T16:11:10.523Z,16.78
2023-01-28T16:12:10.539Z,16.79
2023-01-28T16:13:10.566Z,16.78
2023-01-28T16:14:10.638Z,16.79
2023-01-28T16:15:10.680Z,16.77
2023-01-28T16:16:10.779Z,16.77
2023-01-28T16:17:10.760Z,16.78
2023-01-28T16:18:10.826Z,16.80
2023-01-28T16:19:10.858Z,16.75
2023-01-28T16:20:10.844Z,16.77
2023-01-28T16:21:10.881Z,16.78
2023-01-28T16:22:10.914Z,16.78
2023-01-28T16:23:10.972Z,16.77
2023-01-28T16:24:11.048Z,16.76
2023-01-28T16:25:11.010Z,16.78
2023-01-28T16:26:11.042Z,16.77
2023-01-28T16:27:11.062Z,16.78
2023-01-28T16:28:11.106Z,16.80
2023-01-28T16:29:11.133Z,16.81
2023-01-28T16:30:11.133Z,16.81
2023-01-28T16:31:11.380Z,16.79
2023-01-28T16:32:11.266Z,16.81
2023-01-28T16:33:11.268Z,16.80
2023-01-28T16:34:11.256Z,16.80
2023-01-28T16:35:11.321Z,16.83
2023-01-28T16:36:11.336Z,16.82
2023-01-28T16:37:11.357Z,16.82
2023-01-28T16:38:11.397Z,16.82
2023-01-28T16:39:11.417Z,16.83
2023-01-28T16:40:11.438Z,16.83
2023-01-28T16:41:11.482Z,16.83
2023-01-28T16:42:11.478Z,16.83
2023-01-28T16:43:11.523Z,16.82
2023-01-28T16:44:11.514Z,16.83
2023-01-28T16:45:11.576Z,16.83
2023-01-28T16:46:11.653Z,16.82
2023-01-28T16:47:11.677Z,16.84
2023-01-28T16:48:11.708Z,16.86
2023-01-28T16:49:11.690Z,16.84
2023-01-28T16:50:11.724Z,16.86
2023-01-28T16:51:11.736Z,16.86
2023-01-28T16:52:11.796Z,16.86
2023-01-28T16:53:11.851Z,16.86
2023-01-28T16:54:11.862Z,16.88
2023-01-28T16:55:11.927Z,16.87
2023-01-28T16:56:24.991Z,16.87
2023-01-28T16:57:12.956Z,16.86
2023-01-28T16:58:11.994Z,16.88
2023-01-28T16:59:11.981Z,16.85
2023-01-28T17:00:12.005Z,16.86
2023-01-28T17:01:12.089Z,16.83
2023-01-28T17:02:11.991Z,16.85
2023-01-28T17:03:11.991Z,16.86
2023-01-28T17:04:13.170Z,16.85
2023-01-28T17:05:12.014Z,16.87
2023-01-28T17:06:12.018Z,16.87
2023-01-28T17:07:12.056Z,16.87
2023-01-28T17:08:11.997Z,16.87
2023-01-28T17:09:12.044Z,16.87
2023-01-28T17:10:12.062Z,16.87
2023-01-28T17:11:12.150Z,16.85
2023-01-28T17:12:12.286Z,16.84
2023-01-28T17:13:12.163Z,16.87
2023-01-28T17:14:12.483Z,16.87
2023-01-28T17:15:12.286Z,16.87
2023-01-28T17:16:12.387Z,16.88
2023-01-28T17:17:12.309Z,16.88
2023-01-28T17:18:12.386Z,16.88
2023-01-28T17:19:12.366Z,16.89
2023-01-28T17:20:12.424Z,16.87
2023-01-28T17:21:12.539Z,16.89
2023-01-28T17:22:12.458Z,16.88
2023-01-28T17:23:12.453Z,16.90
2023-01-28T17:24:12.531Z,16.89
2023-01-28T17:25:12.648Z,16.88
2023-01-28T17:26:12.876Z,16.88
2023-01-28T17:27:12.708Z,16.87
2023-01-28T17:28:12.636Z,16.89
2023-01-28T17:29:12.763Z,16.89
2023-01-28T17:30:12.781Z,16.88
2023-01-28T17:31:13.018Z,16.89
2023-01-28T17:32:12.868Z,16.90
2023-01-28T17:33:12.818Z,16.90
2023-01-28T17:34:12.851Z,16.90
2023-01-28T17:35:12.855Z,16.91
2023-01-28T17:36:12.859Z,16.90
2023-01-28T17:37:12.868Z,16.89
2023-01-28T17:38:12.911Z,16.89
2023-01-28T17:39:12.938Z,16.89
2023-01-28T17:40:13.000Z,16.90
2023-01-28T17:41:13.013Z,16.90
2023-01-28T17:42:13.025Z,16.91
2023-01-28T17:43:13.053Z,16.91
2023-01-28T17:44:13.102Z,16.89
2023-01-28T17:45:13.330Z,16.91
2023-01-28T17:46:13.333Z,16.91
2023-01-28T17:47:13.234Z,16.91
2023-01-28T17:48:13.251Z,16.90
2023-01-28T17:49:13.349Z,16.90
2023-01-28T17:50:13.367Z,16.91
2023-01-28T17:51:13.431Z,16.89
2023-01-28T17:52:13.461Z,16.91
2023-01-28T17:53:13.482Z,16.92
2023-01-28T17:54:13.516Z,16.91
2023-01-28T17:55:13.643Z,16.91
2023-01-28T17:56:13.605Z,16.91
2023-01-28T17:57:13.615Z,16.92
2023-01-28T17:58:13.688Z,16.91
2023-01-28T17:59:15.730Z,16.93
2023-01-28T18:00:13.710Z,16.94
2023-01-28T18:01:13.751Z,16.94
2023-01-28T18:02:13.778Z,16.94
2023-01-28T18:03:13.730Z,16.94
2023-01-28T18:04:13.743Z,16.94
2023-01-28T18:05:14.050Z,16.94
2023-01-28T18:06:13.732Z,16.94
2023-01-28T18:07:13.752Z,16.93
2023-01-28T18:08:13.729Z,16.95
2023-01-28T18:09:13.743Z,16.93
2023-01-28T18:10:13.760Z,16.94
2023-01-28T18:11:13.781Z,16.95
2023-01-28T18:12:13.772Z,16.97
2023-01-28T18:13:13.774Z,16.95
2023-01-28T18:14:13.774Z,16.96
2023-01-28T18:15:14.135Z,16.95
2023-01-28T18:16:13.800Z,16.94
2023-01-28T18:17:13.822Z,16.93